Time;durP1;ratioP1;P1;durP2;ratioP2;P2;SDS_P1;SDS_P2;PMS_P1;PMS_P2;Temp;Humidity;BMP_temperature;BMP_pressure;BME280_temperature;BME280_humidity;BME280_pressure;Samples;Min_cycle;Max_cycle;Signal;HPM_P1;HPM_P2
2023/08/30 00:00:48;;;;;;;7.53;6.72;;;;;;;11.87;100.00;100713.06;4971307;28;20038;-68
2023/08/30 00:03:13;;;;;;;8.65;7.03;;;;;;;11.87;100.00;100716.50;4970928;28;20082;-67
2023/08/30 00:05:40;;;;;;;7.75;7.05;;;;;;;11.86;100.00;100711.28;4970859;28;20054;-67
2023/08/30 00:08:05;;;;;;;7.75;6.88;;;;;;;11.85;100.00;100709.53;4953684;28;20033;-67
2023/08/30 00:10:30;;;;;;;7.53;6.57;;;;;;;11.85;100.00;100712.13;4971072;28;20596;-68
2023/08/30 00:12:56;;;;;;;7.80;7.03;;;;;;;11.83;100.00;100713.81;4974359;28;20027;-67
2023/08/30 00:15:21;;;;;;;9.38;7.65;;;;;;;11.82;100.00;100715.53;4976027;28;20442;-68
2023/08/30 00:17:46;;;;;;;8.05;6.82;;;;;;;11.78;100.00;100711.13;4989224;28;20025;-67
2023/08/30 00:20:12;;;;;;;7.30;6.60;;;;;;;11.76;100.00;100703.25;4989000;28;20381;-66
2023/08/30 00:22:37;;;;;;;7.70;7.00;;;;;;;11.74;100.00;100707.56;4973028;28;20889;-67
2023/08/30 00:25:03;;;;;;;7.93;7.07;;;;;;;11.73;100.00;100700.59;4969876;28;20491;-67
2023/08/30 00:27:28;;;;;;;7.68;6.88;;;;;;;11.74;100.00;100701.47;4969515;28;20034;-65
2023/08/30 00:29:53;;;;;;;11.73;7.70;;;;;;;11.73;100.00;100703.19;4969073;28;20599;-68
2023/08/30 00:32:19;;;;;;;9.13;7.95;;;;;;;11.72;100.00;100696.25;4968924;28;20038;-67
2023/08/30 00:34:44;;;;;;;8.10;7.35;;;;;;;11.70;100.00;100695.34;4969326;28;20059;-68
2023/08/30 00:37:09;;;;;;;8.05;7.25;;;;;;;11.69;100.00;100695.31;4969180;28;20078;-67
2023/08/30 00:39:38;;;;;;;9.60;7.20;;;;;;;11.69;100.00;100696.19;4979905;28;20391;-68
2023/08/30 00:42:06;;;;;;;8.20;6.63;;;;;;;11.68;100.00;100686.63;4987369;28;20053;-68
2023/08/30 00:44:32;;;;;;;8.13;7.32;;;;;;;11.62;100.00;100687.34;4988199;28;20038;-68
2023/08/30 00:46:57;;;;;;;7.78;6.97;;;;;;;11.60;100.00;100685.56;4987331;28;20413;-67
2023/08/30 00:49:23;;;;;;;8.32;7.53;;;;;;;11.58;100.00;100676.88;4975096;28;20057;-68
2023/08/30 00:51:48;;;;;;;9.38;7.18;;;;;;;11.55;100.00;100676.78;4977138;28;20093;-68
2023/08/30 00:54:15;;;;;;;8.27;7.13;;;;;;;11.50;100.00;100672.34;4969492;28;20058;-67
2023/08/30 00:56:41;;;;;;;8.73;7.18;;;;;;;11.48;100.00;100668.84;4988808;28;20077;-68
2023/08/30 00:59:06;;;;;;;8.35;7.25;;;;;;;11.45;100.00;100668.75;4988727;28;20026;-67
2023/08/30 01:01:31;;;;;;;7.65;6.95;;;;;;;11.44;100.00;100666.13;4988702;28;20492;-68
2023/08/30 01:03:57;;;;;;;7.65;6.85;;;;;;;11.39;100.00;100660.81;4970378;28;20023;-67
2023/08/30 01:06:22;;;;;;;8.50;7.05;;;;;;;11.38;100.00;100664.25;4980131;28;20065;-68
2023/08/30 01:08:48;;;;;;;7.75;6.97;;;;;;;11.34;100.00;100665.00;4987933;28;20061;-67
2023/08/30 01:11:48;;;;;;;7.45;6.75;;;;;;;11.30;100.00;100666.63;4988658;28;20392;-67
2023/08/30 01:14:20;;;;;;;7.80;7.10;;;;;;;11.26;100.00;100664.81;4970088;28;20073;-68
2023/08/30 01:16:46;;;;;;;8.00;7.20;;;;;;;11.22;100.00;100669.06;4987574;28;20026;-68
2023/08/30 01:19:29;;;;;;;7.65;6.93;;;;;;;11.19;100.00;100666.34;4987856;28;20306;-68
2023/08/30 01:22:08;;;;;;;7.75;6.95;;;;;;;11.17;100.00;100668.06;4983109;28;20097;-66
2023/08/30 01:25:12;;;;;;;8.13;7.32;;;;;;;11.09;100.00;100662.66;4969289;28;20097;-68
2023/08/30 01:27:39;;;;;;;7.82;7.07;;;;;;;11.02;100.00;100656.41;4959819;28;20065;-67
2023/08/30 01:30:07;;;;;;;8.07;7.28;;;;;;;11.00;100.00;100657.22;4968865;28;20129;-68
2023/08/30 01:32:34;;;;;;;7.90;7.10;;;;;;;10.98;100.00;100653.69;4972135;28;20035;-67
2023/08/30 01:35:01;;;;;;;9.05;6.70;;;;;;;11.00;100.00;100652.91;4972124;28;20105;-67
2023/08/30 01:37:27;;;;;;;7.00;6.30;;;;;;;10.97;100.00;100647.66;4972860;28;20041;-67
2023/08/30 01:39:56;;;;;;;9.38;7.13;;;;;;;10.94;100.00;100652.72;4972496;28;20023;-68
2023/08/30 01:42:23;;;;;;;7.65;6.90;;;;;;;10.93;100.00;100650.97;4972209;28;20037;-67
2023/08/30 01:44:51;;;;;;;7.20;6.53;;;;;;;10.92;100.00;100656.97;4972295;28;20035;-68
2023/08/30 01:47:18;;;;;;;8.43;6.65;;;;;;;10.94;100.00;100652.72;4972699;28;20202;-68
2023/08/30 01:49:44;;;;;;;9.02;6.63;;;;;;;10.94;100.00;100647.53;4972582;28;20042;-67
2023/08/30 01:52:10;;;;;;;7.50;6.60;;;;;;;10.92;100.00;100651.78;4972726;28;20113;-67
2023/08/30 01:54:37;;;;;;;8.55;6.80;;;;;;;10.92;100.00;100649.19;4972544;28;20042;-68
2023/08/30 01:57:02;;;;;;;8.00;6.50;;;;;;;10.90;100.00;100641.38;4971716;28;20411;-67
2023/08/30 01:59:29;;;;;;;8.10;6.38;;;;;;;10.91;100.00;100647.47;4970863;28;20059;-68
2023/08/30 02:01:55;;;;;;;7.97;7.18;;;;;;;10.92;100.00;100644.91;4971739;28;20109;-67
2023/08/30 02:04:20;;;;;;;7.18;6.50;;;;;;;10.92;100.00;100644.03;4971717;28;20590;-67
2023/08/30 02:06:54;;;;;;;8.07;7.07;;;;;;;10.95;100.00;100651.00;4971839;28;20034;-68
2023/08/30 02:09:26;;;;;;;7.35;6.13;;;;;;;10.94;100.00;100650.13;4971639;28;20031;-67
2023/08/30 02:11:55;;;;;;;8.32;7.18;;;;;;;10.92;100.00;100644.91;4971477;28;20030;-66
2023/08/30 02:14:21;;;;;;;7.78;6.80;;;;;;;10.92;100.00;100646.59;4971755;28;20027;-65
2023/08/30 02:16:48;;;;;;;7.47;6.65;;;;;;;10.91;100.00;100639.69;4971510;28;20031;-64
2023/08/30 02:19:16;;;;;;;7.05;6.35;;;;;;;10.89;100.00;100639.66;4971160;28;20034;-67
2023/08/30 02:21:42;;;;;;;9.57;7.07;;;;;;;10.87;100.00;100640.44;4971122;28;20061;-66
2023/08/30 02:24:08;;;;;;;9.52;7.60;;;;;;;10.86;100.00;100633.50;4971576;28;20054;-68
2023/08/30 02:26:33;;;;;;;7.95;6.95;;;;;;;10.85;100.00;100632.63;4986008;28;20045;-67
2023/08/30 02:28:59;;;;;;;7.45;6.68;;;;;;;10.86;100.00;100631.78;5000184;28;20329;-67
2023/08/30 02:31:24;;;;;;;8.45;7.22;;;;;;;10.85;100.00;100631.75;4993503;28;20486;-66
2023/08/30 02:33:49;;;;;;;7.20;6.50;;;;;;;10.84;100.00;100627.38;4985495;28;20085;-67
2023/08/30 02:36:14;;;;;;;7.88;7.07;;;;;;;10.80;100.00;100627.31;4971210;28;20027;-68
2023/08/30 02:38:40;;;;;;;10.80;7.70;;;;;;;10.77;100.00;100624.66;4971214;28;20019;-68
2023/08/30 02:41:05;;;;;;;9.00;6.85;;;;;;;10.76;100.00;100620.28;4971358;28;20069;-67
2023/08/30 02:43:30;;;;;;;8.15;6.85;;;;;;;10.76;100.00;100622.88;4970115;28;20042;-68
2023/08/30 02:45:56;;;;;;;8.70;6.97;;;;;;;10.75;100.00;100618.53;4970770;28;20046;-67
2023/08/30 02:48:21;;;;;;;8.65;7.28;;;;;;;10.73;100.00;100611.53;4971672;28;20386;-65
2023/08/30 02:50:46;;;;;;;11.38;8.27;;;;;;;10.72;100.00;100610.66;4970983;28;20019;-67
2023/08/30 02:53:12;;;;;;;10.70;7.75;;;;;;;10.71;100.00;100611.50;4983484;28;20058;-67
2023/08/30 02:55:37;;;;;;;9.57;8.23;;;;;;;10.74;100.00;100608.13;4971278;28;20067;-67
2023/08/30 02:58:03;;;;;;;9.80;8.60;;;;;;;10.75;100.00;100600.41;4971263;28;20026;-64
2023/08/30 03:00:28;;;;;;;8.40;7.63;;;;;;;10.78;100.00;100603.06;4963883;28;20023;-67
2023/08/30 03:02:53;;;;;;;9.85;8.48;;;;;;;10.82;100.00;100598.84;4972650;28;20479;-67
2023/08/30 03:05:19;;;;;;;10.18;8.55;;;;;;;10.80;100.00;100593.63;4970907;28;20031;-68
2023/08/30 03:07:44;;;;;;;12.05;8.43;;;;;;;10.81;100.00;100597.09;4987354;28;20065;-64
2023/08/30 03:10:11;;;;;;;9.23;8.32;;;;;;;10.82;100.00;100598.84;4979178;28;20031;-67
2023/08/30 03:12:36;;;;;;;10.80;9.15;;;;;;;10.83;100.00;100603.16;4986485;28;20041;-68
2023/08/30 03:15:02;;;;;;;10.05;8.63;;;;;;;10.84;100.00;100598.88;4989069;28;20066;-67
2023/08/30 03:17:27;;;;;;;12.27;9.85;;;;;;;10.86;100.00;100597.22;4989097;28;20018;-67
2023/08/30 03:19:53;;;;;;;10.05;8.80;;;;;;;10.89;100.00;100597.28;4989023;28;20496;-65
2023/08/30 03:22:18;;;;;;;11.30;9.60;;;;;;;10.92;100.00;100599.94;4981555;28;20026;-68
2023/08/30 03:24:44;;;;;;;11.13;9.15;;;;;;;10.93;100.00;100594.84;4983996;28;20080;-67
2023/08/30 03:27:09;;;;;;;10.77;9.68;;;;;;;10.97;100.00;100593.19;4989010;28;20414;-67
2023/08/30 03:29:34;;;;;;;10.30;9.30;;;;;;;11.00;100.00;100593.28;4988497;28;20402;-67
2023/08/30 03:31:59;;;;;;;10.60;9.32;;;;;;;11.02;100.00;100593.31;4974257;28;20038;-68
2023/08/30 03:34:25;;;;;;;10.20;9.13;;;;;;;11.05;100.00;100583.91;4978612;28;20026;-68
2023/08/30 03:36:54;;;;;;;11.90;9.35;;;;;;;11.08;100.00;100572.72;4989148;28;20061;-68
2023/08/30 03:39:20;;;;;;;11.27;9.00;;;;;;;11.09;100.00;100569.28;4979362;28;20090;-67
2023/08/30 03:41:46;;;;;;;9.93;8.80;;;;;;;11.10;100.00;100559.81;4970037;28;20077;-67
2023/08/30 03:44:11;;;;;;;10.38;8.88;;;;;;;11.11;100.00;100553.78;4969823;28;20058;-65
2023/08/30 03:46:36;;;;;;;10.75;8.50;;;;;;;11.12;100.00;100552.91;4985670;28;20374;-68
2023/08/30 03:49:03;;;;;;;10.20;8.60;;;;;;;11.14;100.00;100541.75;4989025;28;20058;-67
2023/08/30 03:51:28;;;;;;;9.23;8.32;;;;;;;11.14;100.00;100540.88;4971873;28;20021;-67
2023/08/30 03:53:56;;;;;;;9.60;8.60;;;;;;;11.14;100.00;100531.38;4969992;28;20554;-68
2023/08/30 03:56:21;;;;;;;12.77;8.82;;;;;;;11.15;100.00;100530.53;4968803;28;20033;-68
2023/08/30 03:58:46;;;;;;;9.52;8.52;;;;;;;11.16;100.00;100524.53;4978595;28;20023;-68
2023/08/30 04:01:12;;;;;;;11.02;9.13;;;;;;;11.19;100.00;100521.13;4970417;28;20034;-65
2023/08/30 04:03:37;;;;;;;10.80;8.68;;;;;;;11.21;100.00;100514.25;4969286;28;20031;-67
2023/08/30 04:06:02;;;;;;;11.35;9.30;;;;;;;11.24;100.00;100506.53;4970530;28;20019;-68
2023/08/30 04:08:27;;;;;;;12.10;10.50;;;;;;;11.27;100.00;100510.94;4969812;28;20031;-68
2023/08/30 04:10:53;;;;;;;12.48;9.90;;;;;;;11.30;100.00;100511.00;4970669;28;20382;-68
2023/08/30 04:13:19;;;;;;;11.57;10.23;;;;;;;11.33;100.00;100499.84;4969419;28;20030;-67
2023/08/30 04:15:44;;;;;;;10.13;9.00;;;;;;;11.34;100.00;100481.69;4970030;28;20026;-68
2023/08/30 04:18:09;;;;;;;12.85;10.15;;;;;;;11.37;100.00;100488.69;4969401;28;20381;-68
2023/08/30 04:20:35;;;;;;;11.65;10.55;;;;;;;11.39;100.00;100494.78;4973697;28;20033;-67
2023/08/30 04:23:01;;;;;;;12.10;10.43;;;;;;;11.40;100.00;100496.53;4976386;28;20088;-67
2023/08/30 04:25:27;;;;;;;12.60;11.30;;;;;;;11.42;100.00;100502.66;4969265;28;20130;-67
2023/08/30 04:27:53;;;;;;;12.07;10.80;;;;;;;11.41;100.00;100503.47;4969829;28;20571;-68
2023/08/30 04:30:18;;;;;;;12.20;10.90;;;;;;;11.41;100.00;100506.94;4986389;28;20085;-67
2023/08/30 04:32:43;;;;;;;12.23;10.90;;;;;;;11.36;100.00;100500.78;4977003;28;20405;-67
2023/08/30 04:35:09;;;;;;;13.40;11.30;;;;;;;11.34;100.00;100497.28;4985843;28;20085;-66
2023/08/30 04:37:35;;;;;;;12.65;11.40;;;;;;;11.32;100.00;100498.06;4969386;28;20027;-67
2023/08/30 04:40:00;;;;;;;12.88;11.40;;;;;;;11.32;100.00;100488.56;4969281;28;20426;-67
2023/08/30 04:42:26;;;;;;;14.13;11.82;;;;;;;11.32;100.00;100485.09;4985222;28;20034;-67
2023/08/30 04:44:54;;;;;;;13.13;11.82;;;;;;;11.35;100.00;100490.38;4993045;28;20030;-66
2023/08/30 04:47:19;;;;;;;15.48;12.65;;;;;;;11.36;100.00;100484.34;4983017;28;20038;-67
2023/08/30 04:49:50;;;;;;;13.93;12.45;;;;;;;11.38;100.00;100483.53;4980730;28;20031;-66
2023/08/30 04:52:15;;;;;;;14.05;12.32;;;;;;;11.40;100.00;100481.81;4980905;28;20101;-67
2023/08/30 04:54:42;;;;;;;16.45;12.30;;;;;;;11.43;100.00;100486.22;4979103;28;20542;-67
2023/08/30 04:57:08;;;;;;;13.38;11.95;;;;;;;11.45;100.00;100483.66;4980993;28;20081;-67
2023/08/30 04:59:33;;;;;;;13.77;11.98;;;;;;;11.46;100.00;100478.50;4979265;28;20027;-68
2023/08/30 05:01:59;;;;;;;13.50;12.10;;;;;;;11.48;100.00;100470.75;4978721;28;20064;-68
2023/08/30 05:04:24;;;;;;;12.88;11.73;;;;;;;11.50;100.00;100467.38;4979487;28;20022;-68
2023/08/30 05:06:50;;;;;;;14.77;12.23;;;;;;;11.52;100.00;100457.91;4983779;28;20026;-64
2023/08/30 05:09:15;;;;;;;14.50;12.75;;;;;;;11.55;100.00;100466.59;4983277;28;20125;-68
2023/08/30 05:11:40;;;;;;;15.35;13.75;;;;;;;11.58;100.00;100458.88;4987472;28;20022;-63
2023/08/30 05:14:06;;;;;;;15.25;13.73;;;;;;;11.59;100.00;100458.00;4982368;28;20520;-67
2023/08/30 05:16:32;;;;;;;16.50;14.73;;;;;;;11.61;100.00;100453.75;4988521;28;20026;-67
2023/08/30 05:18:57;;;;;;;14.85;13.32;;;;;;;11.63;100.00;100452.06;4983922;28;20026;-68
2023/08/30 05:21:22;;;;;;;15.70;14.18;;;;;;;11.65;100.00;100450.38;4987490;28;20038;-64
2023/08/30 05:23:47;;;;;;;15.27;13.80;;;;;;;11.69;100.00;100446.13;4983543;28;20076;-67
2023/08/30 05:26:13;;;;;;;16.33;14.25;;;;;;;11.72;100.00;100446.19;4988368;28;20054;-67
2023/08/30 05:28:38;;;;;;;15.18;13.70;;;;;;;11.74;100.00;100450.59;4982720;28;20114;-67
2023/08/30 05:31:04;;;;;;;15.82;14.23;;;;;;;11.78;100.00;100441.13;4983562;28;20033;-68
2023/08/30 05:33:29;;;;;;;16.40;14.73;;;;;;;11.85;100.00;100455.13;4987320;28;20030;-67
2023/08/30 05:35:54;;;;;;;15.43;13.65;;;;;;;11.91;100.00;100451.78;4987353;28;20026;-68
2023/08/30 05:38:20;;;;;;;14.48;12.98;;;;;;;11.95;100.00;100446.66;4986119;28;20058;-66
2023/08/30 05:40:45;;;;;;;14.88;13.35;;;;;;;11.99;100.00;100445.88;4987115;28;20014;-68
2023/08/30 05:43:11;;;;;;;14.57;13.05;;;;;;;12.00;100.00;100442.44;4987967;28;20018;-67
2023/08/30 05:45:37;;;;;;;13.95;12.27;;;;;;;12.03;100.00;100436.44;4988690;28;20389;-67
2023/08/30 05:48:02;;;;;;;15.00;13.52;;;;;;;12.05;100.00;100434.75;4987619;28;20030;-66
2023/08/30 05:50:28;;;;;;;15.50;13.55;;;;;;;12.08;100.00;100426.13;4988902;28;20058;-67
2023/08/30 05:52:53;;;;;;;14.05;12.60;;;;;;;12.10;100.00;100433.16;4987315;28;20031;-68
2023/08/30 05:55:19;;;;;;;14.13;10.88;;;;;;;12.14;100.00;100423.69;4990957;28;20030;-67
2023/08/30 05:57:44;;;;;;;12.63;10.95;;;;;;;12.20;100.00;100428.97;4990427;28;20041;-67
2023/08/30 06:00:10;;;;;;;12.52;11.05;;;;;;;12.26;100.00;100433.44;4990345;28;20019;-67
2023/08/30 06:02:35;;;;;;;12.10;11.00;;;;;;;12.31;100.00;100430.91;4990936;28;20490;-68
2023/08/30 06:05:01;;;;;;;11.18;10.13;;;;;;;12.37;100.00;100428.44;4991346;28;20022;-68
2023/08/30 06:07:26;;;;;;;12.38;11.15;;;;;;;12.42;100.00;100428.50;4990414;28;20032;-68
2023/08/30 06:09:51;;;;;;;11.52;10.40;;;;;;;12.46;100.00;100425.13;4991297;28;20109;-68
2023/08/30 06:12:17;;;;;;;11.02;9.93;;;;;;;12.52;100.00;100427.81;4990382;28;20052;-67
2023/08/30 06:14:43;;;;;;;12.27;10.57;;;;;;;12.56;100.00;100427.03;4991278;28;20499;-68
2023/08/30 06:17:08;;;;;;;12.38;10.07;;;;;;;12.60;100.00;100420.16;4989417;28;20450;-68
2023/08/30 06:19:33;;;;;;;10.32;9.32;;;;;;;12.65;100.00;100421.09;4972689;28;20108;-68
2023/08/30 06:21:59;;;;;;;10.65;9.48;;;;;;;12.67;100.00;100411.59;4984607;28;20039;-66
2023/08/30 06:24:24;;;;;;;12.23;11.00;;;;;;;12.69;100.00;100417.72;4982343;28;20026;-68
2023/08/30 06:26:49;;;;;;;11.75;10.52;;;;;;;12.71;100.00;100404.75;4989125;28;20059;-68
2023/08/30 06:29:14;;;;;;;12.10;9.32;;;;;;;12.72;100.00;100412.56;4990032;28;20041;-68
2023/08/30 06:31:42;;;;;;;11.32;9.43;;;;;;;12.76;100.00;100407.41;4989847;28;20033;-65
2023/08/30 06:34:07;;;;;;;10.25;8.68;;;;;;;12.77;100.00;100411.75;4971470;28;20027;-69
2023/08/30 06:36:32;;;;;;;9.77;8.93;;;;;;;12.80;100.00;100411.81;4972057;28;20144;-68
2023/08/30 06:38:57;;;;;;;10.68;9.00;;;;;;;12.83;100.00;100412.72;4977957;28;20030;-68
2023/08/30 06:41:23;;;;;;;9.82;8.27;;;;;;;12.86;100.00;100419.72;4990879;28;20041;-68
2023/08/30 06:43:48;;;;;;;10.27;9.27;;;;;;;12.90;100.00;100424.09;4990479;28;20033;-68
2023/08/30 06:46:14;;;;;;;12.05;8.68;;;;;;;12.91;100.00;100432.78;4990987;28;20022;-65
2023/08/30 06:48:39;;;;;;;10.57;8.70;;;;;;;12.95;100.00;100430.25;4977990;28;20034;-68
2023/08/30 06:51:04;;;;;;;11.77;9.38;;;;;;;12.96;100.00;100421.59;4990825;28;20049;-66
2023/08/30 06:53:29;;;;;;;12.95;10.55;;;;;;;12.97;100.00;100433.75;4989600;28;20038;-69
2023/08/30 06:55:59;;;;;;;12.18;9.75;;;;;;;12.96;100.00;100426.81;5003868;28;20501;-69
2023/08/30 06:58:25;;;;;;;12.80;11.30;;;;;;;12.96;100.00;100432.00;4978300;28;20033;-69
2023/08/30 07:00:50;;;;;;;13.27;11.38;;;;;;;12.95;100.00;100430.25;4990766;28;20425;-67
2023/08/30 07:03:15;;;;;;;12.50;11.20;;;;;;;12.94;100.00;100430.22;4990468;28;20062;-68
2023/08/30 07:05:41;;;;;;;13.02;11.70;;;;;;;12.93;100.00;100434.53;4990398;28;20030;-68
2023/08/30 07:08:06;;;;;;;13.77;12.38;;;;;;;12.88;100.00;100428.41;4983616;28;20031;-68
2023/08/30 07:10:33;;;;;;;13.80;12.32;;;;;;;12.86;100.00;100430.13;4983828;28;20466;-68
2023/08/30 07:12:59;;;;;;;16.25;13.73;;;;;;;12.83;100.00;100424.84;4971224;28;20105;-68
2023/08/30 07:15:25;;;;;;;16.73;13.93;;;;;;;12.75;100.00;100419.53;4971875;28;20113;-69
2023/08/30 07:17:50;;;;;;;18.15;16.15;;;;;;;12.69;100.00;100403.84;4983405;28;20611;-67
2023/08/30 07:20:16;;;;;;;17.23;14.57;;;;;;;12.61;100.00;100396.78;4970765;28;20039;-68
2023/08/30 07:22:41;;;;;;;21.77;15.77;;;;;;;12.54;100.00;100392.31;4970546;28;20038;-68
2023/08/30 07:25:08;;;;;;;17.67;15.00;;;;;;;12.51;100.00;100384.50;4987868;28;20065;-69
2023/08/30 07:27:33;;;;;;;18.17;16.38;;;;;;;12.45;100.00;100382.66;4989750;28;20054;-69
2023/08/30 07:29:59;;;;;;;18.60;16.58;;;;;;;12.42;100.00;100377.41;4988516;28;20041;-69
2023/08/30 07:32:24;;;;;;;18.88;16.50;;;;;;;12.38;100.00;100374.75;4971328;28;20031;-69
2023/08/30 07:34:49;;;;;;;18.88;15.75;;;;;;;12.32;100.00;100370.31;4970389;28;20054;-68
2023/08/30 07:37:21;;;;;;;16.92;15.05;;;;;;;12.31;100.00;100381.53;4970750;28;20068;-68
2023/08/30 07:39:46;;;;;;;19.20;15.15;;;;;;;12.34;100.00;100373.81;4970862;28;20026;-69
2023/08/30 07:42:13;;;;;;;18.30;14.70;;;;;;;12.33;100.00;100372.06;4970803;28;20030;-68
2023/08/30 07:44:38;;;;;;;16.45;13.93;;;;;;;12.28;100.00;100373.69;4970056;28;20031;-68
2023/08/30 07:47:04;;;;;;;18.77;13.60;;;;;;;12.30;100.00;100372.00;4971007;28;20085;-69
2023/08/30 07:49:29;;;;;;;17.50;13.35;;;;;;;12.24;100.00;100373.66;4970554;28;20046;-68
2023/08/30 07:51:54;;;;;;;16.83;14.38;;;;;;;12.25;100.00;100359.81;4970563;28;20448;-68
2023/08/30 07:54:19;;;;;;;14.80;12.27;;;;;;;12.32;100.00;100365.97;4969610;28;20035;-68
2023/08/30 07:56:45;;;;;;;13.98;12.07;;;;;;;12.32;100.00;100365.13;4970493;28;20034;-69
2023/08/30 07:59:10;;;;;;;15.50;12.50;;;;;;;12.31;100.00;100358.16;4970496;28;20027;-69
2023/08/30 08:01:35;;;;;;;16.38;12.55;;;;;;;12.35;100.00;100360.84;4977915;28;20026;-69
2023/08/30 08:04:00;;;;;;;14.43;12.00;;;;;;;12.38;100.00;100352.22;4975946;28;20082;-69
2023/08/30 08:06:26;;;;;;;13.05;11.50;;;;;;;12.39;100.00;100358.31;4969954;28;20037;-67
2023/08/30 08:08:51;;;;;;;11.93;10.73;;;;;;;12.39;100.00;100356.59;4970268;28;20023;-69
2023/08/30 08:11:16;;;;;;;12.50;11.27;;;;;;;12.44;100.00;100349.75;4970774;28;20109;-69
2023/08/30 08:13:42;;;;;;;11.52;10.13;;;;;;;12.43;100.00;100358.38;4970897;28;20034;-66
2023/08/30 08:16:07;;;;;;;13.38;10.32;;;;;;;12.43;100.00;100353.16;4982627;28;20426;-69
2023/08/30 08:18:33;;;;;;;10.60;9.50;;;;;;;12.45;100.00;100360.97;4971310;28;20031;-65
2023/08/30 08:20:58;;;;;;;10.00;9.02;;;;;;;12.47;100.00;100352.38;4970435;28;20082;-69
2023/08/30 08:23:23;;;;;;;9.93;8.48;;;;;;;12.53;100.00;100359.41;4969879;28;20490;-68
2023/08/30 08:25:48;;;;;;;9.75;8.82;;;;;;;12.54;100.00;100355.94;4979633;28;20038;-67
2023/08/30 08:28:14;;;;;;;8.73;7.88;;;;;;;12.43;100.00;100355.75;4975541;28;20393;-65
2023/08/30 08:30:39;;;;;;;11.07;9.48;;;;;;;12.46;100.00;100367.94;4983635;28;20024;-69
2023/08/30 08:33:04;;;;;;;10.15;9.13;;;;;;;12.49;100.00;100353.28;4978039;28;20094;-69
2023/08/30 08:35:30;;;;;;;9.20;8.20;;;;;;;12.51;100.00;100355.91;4969772;28;20081;-69
2023/08/30 08:37:55;;;;;;;9.68;8.70;;;;;;;12.53;100.00;100359.41;4969112;28;20027;-69
2023/08/30 08:40:20;;;;;;;9.95;8.80;;;;;;;12.59;100.00;100354.28;4970115;28;20336;-67
2023/08/30 08:42:50;;;;;;;9.65;8.65;;;;;;;12.61;100.00;100352.59;4970034;28;20066;-69
2023/08/30 08:45:16;;;;;;;10.25;9.25;;;;;;;12.65;100.00;100361.31;4969845;28;20025;-68
2023/08/30 08:47:42;;;;;;;11.27;9.32;;;;;;;12.63;100.00;100355.22;4951920;28;20569;-67
2023/08/30 08:50:09;;;;;;;11.30;9.60;;;;;;;12.68;100.00;100348.34;4969932;28;20027;-68
2023/08/30 08:52:34;;;;;;;9.88;8.32;;;;;;;12.66;100.00;100350.09;4970114;28;20031;-67
2023/08/30 08:55:00;;;;;;;10.20;9.10;;;;;;;12.72;100.00;100357.09;4976333;28;20026;-68
2023/08/30 08:57:26;;;;;;;9.57;8.57;;;;;;;12.75;100.00;100353.66;4976980;28;20121;-68
2023/08/30 08:59:51;;;;;;;10.40;8.40;;;;;;;12.78;100.00;100351.09;4969946;28;20038;-69
2023/08/30 09:02:17;;;;;;;10.50;8.02;;;;;;;12.81;100.00;100359.81;4981105;28;20089;-68
2023/08/30 09:04:43;;;;;;;7.78;6.97;;;;;;;12.83;100.00;100355.53;4970247;28;20019;-69
2023/08/30 09:07:09;;;;;;;8.43;7.47;;;;;;;12.87;100.00;100353.84;4969905;28;20033;-69
2023/08/30 09:09:34;;;;;;;10.05;7.68;;;;;;;12.89;100.00;100357.34;4969090;28;20023;-67
2023/08/30 09:12:00;;;;;;;8.23;7.43;;;;;;;12.93;100.00;100351.31;4969690;28;20023;-68
2023/08/30 09:14:25;;;;;;;8.30;7.60;;;;;;;13.00;100.00;100343.63;4969563;28;20049;-68
2023/08/30 09:17:08;;;;;;;8.98;7.43;;;;;;;13.07;100.00;100353.25;4969783;28;20034;-64
2023/08/30 09:19:34;;;;;;;8.43;7.63;;;;;;;13.17;100.00;100354.25;4968607;28;20050;-69
2023/08/30 09:22:00;;;;;;;8.18;7.38;;;;;;;13.28;100.00;100344.88;4969019;28;20019;-68
2023/08/30 09:24:26;;;;;;;9.38;8.43;;;;;;;13.39;100.00;100345.00;4981415;28;20064;-68
2023/08/30 09:26:54;;;;;;;8.73;7.72;;;;;;;13.51;100.00;100346.88;4987632;28;20074;-69
2023/08/30 09:29:21;;;;;;;8.57;7.15;;;;;;;13.57;100.00;100349.59;4987426;28;20034;-68
2023/08/30 09:31:52;;;;;;;8.57;7.75;;;;;;;13.61;100.00;100357.44;4973800;28;20030;-65
2023/08/30 09:34:23;;;;;;;9.10;8.25;;;;;;;13.63;100.00;100358.34;4976613;28;20037;-67
2023/08/30 09:36:50;;;;;;;;;;;;;;;13.64;100.00;100360.94;4973493;28;20033;-69
2023/08/30 09:39:15;;;;;;;8.00;7.20;;;;;;;13.68;100.00;100352.34;4968650;28;19914;-67
2023/08/30 09:41:41;;;;;;;10.57;7.80;;;;;;;13.74;100.00;100354.13;4968518;28;20419;-65
2023/08/30 09:44:18;;;;;;;9.02;8.13;;;;;;;13.82;100.00;100359.41;4968539;28;20051;-70
2023/08/30 09:46:54;;;;;;;8.32;7.25;;;;;;;13.85;100.00;100356.81;4967565;28;20019;-69
2023/08/30 09:49:21;;;;;;;8.20;7.40;;;;;;;13.80;100.00;100353.31;4980128;28;20037;-67
2023/08/30 09:51:47;;;;;;;9.10;7.78;;;;;;;13.89;100.00;100358.63;4987372;28;20077;-70
2023/08/30 09:54:18;;;;;;;8.98;8.13;;;;;;;13.98;100.00;100351.75;4991060;28;20073;-68
2023/08/30 09:56:45;;;;;;;8.13;7.43;;;;;;;14.02;100.00;100363.94;4960416;28;20026;-69
2023/08/30 09:59:11;;;;;;;7.57;6.90;;;;;;;14.03;100.00;100355.31;4991077;28;20026;-69
2023/08/30 10:01:38;;;;;;;12.65;9.27;;;;;;;14.17;100.00;100353.66;4990660;28;20034;-69
2023/08/30 10:04:04;;;;;;;10.50;9.50;;;;;;;14.41;100.00;100351.28;4990775;28;20032;-68
2023/08/30 10:06:30;;;;;;;9.50;8.52;;;;;;;14.65;100.00;100352.34;4991186;28;20041;-69
2023/08/30 10:08:56;;;;;;;9.27;8.10;;;;;;;14.76;100.00;100342.88;4990793;28;20026;-70
2023/08/30 10:11:24;;;;;;;9.07;8.25;;;;;;;14.94;100.00;100345.59;4983432;28;20141;-68
2023/08/30 10:13:51;;;;;;;9.15;8.35;;;;;;;15.17;100.00;100343.13;4985172;28;20036;-70
2023/08/30 10:16:22;;;;;;;8.50;7.80;;;;;;;15.29;100.00;100339.69;4991158;28;20548;-68
2023/08/30 10:19:01;;;;;;;8.35;7.55;;;;;;;15.47;100.00;100340.66;4989989;28;20504;-69
2023/08/30 10:21:29;;;;;;;7.93;7.13;;;;;;;15.66;100.00;100340.69;4989998;28;20022;-68
2023/08/30 10:23:56;;;;;;;9.00;8.30;;;;;;;15.83;100.00;100333.78;4978756;28;20022;-69
2023/08/30 10:26:25;;;;;;;8.60;7.82;;;;;;;15.98;100.00;100337.28;4977225;28;20059;-69
2023/08/30 10:28:53;;;;;;;7.95;7.35;;;;;;;16.16;100.00;100336.47;4990991;28;20054;-70
2023/08/30 10:31:19;;;;;;;8.30;7.60;;;;;;;16.23;100.00;100341.69;4990108;28;20097;-66
2023/08/30 10:33:53;;;;;;;8.00;7.40;;;;;;;16.32;100.00;100337.34;4974139;28;20035;-68
2023/08/30 10:36:25;;;;;;;7.30;6.63;;;;;;;16.50;100.00;100329.47;4971393;28;20034;-68
2023/08/30 10:38:52;;;;;;;9.07;8.13;;;;;;;16.67;100.00;100326.88;4976106;28;20282;-70
2023/08/30 10:41:22;;;;;;;8.00;7.30;;;;;;;16.65;100.00;100320.75;4990571;28;20101;-68
2023/08/30 10:43:57;;;;;;;8.38;7.60;;;;;;;16.84;100.00;100318.97;4977609;28;20027;-70
2023/08/30 10:46:30;;;;;;;8.57;7.88;;;;;;;16.99;100.00;100323.31;4990232;28;20189;-66
2023/08/30 10:48:57;;;;;;;9.05;8.20;;;;;;;16.90;100.00;100323.31;4990087;28;20022;-70
2023/08/30 10:51:38;;;;;;;7.57;6.95;;;;;;;17.01;100.00;100326.78;4991422;28;21062;-67
2023/08/30 10:54:10;;;;;;;;;;;;;;;17.13;100.00;100317.19;4998114;28;20036;-70
2023/08/30 10:56:46;;;;;;;6.90;6.25;;;;;;;17.32;100.00;100322.34;4989906;28;19939;-70
2023/08/30 10:59:23;;;;;;;6.95;6.25;;;;;;;17.57;100.00;100312.63;4989566;28;20026;-70
2023/08/30 11:01:49;;;;;;;6.68;6.07;;;;;;;17.66;100.00;100314.34;4989540;28;20033;-70
2023/08/30 11:04:16;;;;;;;6.50;5.93;;;;;;;17.62;100.00;100317.84;4988729;28;20490;-70
2023/08/30 11:06:44;;;;;;;6.13;5.63;;;;;;;17.66;100.00;100321.31;4989775;28;20033;-69
2023/08/30 11:09:10;;;;;;;7.10;6.40;;;;;;;17.64;100.00;100311.72;4991600;28;20041;-69